sensor_id;sensor_type;location;lat;lon;timestamp;P1;durP1;ratioP1;P2;durP2;ratioP2
20397;SDS011;10358;49.590;11.030;2023-10-08T00:01:15;10.63;;;5.65;;
20397;SDS011;10358;49.590;11.030;2023-10-08T00:03:44;12.00;;;6.17;;
20397;SDS011;10358;49.590;11.030;2023-10-08T00:06:15;12.63;;;6.05;;
20397;SDS011;10358;49.590;11.030;2023-10-08T00:08:45;10.10;;;4.82;;
20397;SDS011;10358;49.590;11.030;2023-10-08T00:11:10;12.27;;;5.10;;
20397;SDS011;10358;49.590;11.030;2023-10-08T00:13:36;13.88;;;5.75;;
20397;SDS011;10358;49.590;11.030;2023-10-08T00:16:05;16.90;;;5.30;;
20397;SDS011;10358;49.590;11.030;2023-10-08T00:18:34;13.18;;;5.55;;
20397;SDS011;10358;49.590;11.030;2023-10-08T00:21:00;12.80;;;5.03;;
20397;SDS011;10358;49.590;11.030;2023-10-08T00:23:36;7.10;;;4.45;;
20397;SDS011;10358;49.590;11.030;2023-10-08T00:26:06;13.15;;;5.72;;
20397;SDS011;10358;49.590;11.030;2023-10-08T00:28:33;9.38;;;3.83;;
20397;SDS011;10358;49.590;11.030;2023-10-08T00:30:58;9.75;;;4.20;;
20397;SDS011;10358;49.590;11.030;2023-10-08T00:33:35;7.13;;;3.45;;
20397;SDS011;10358;49.590;11.030;2023-10-08T00:36:01;8.18;;;4.00;;
20397;SDS011;10358;49.590;11.030;2023-10-08T00:38:42;8.95;;;4.05;;
20397;SDS011;10358;49.590;11.030;2023-10-08T00:41:12;9.50;;;4.38;;
20397;SDS011;10358;49.590;11.030;2023-10-08T00:43:41;9.50;;;4.38;;
20397;SDS011;10358;49.590;11.030;2023-10-08T00:46:10;10.55;;;3.83;;
20397;SDS011;10358;49.590;11.030;2023-10-08T00:48:47;6.20;;;3.70;;
20397;SDS011;10358;49.590;11.030;2023-10-08T00:51:14;13.52;;;5.05;;
20397;SDS011;10358;49.590;11.030;2023-10-08T00:53:42;10.00;;;4.97;;
20397;SDS011;10358;49.590;11.030;2023-10-08T00:56:09;9.32;;;4.72;;
20397;SDS011;10358;49.590;11.030;2023-10-08T00:58:43;12.02;;;4.78;;
20397;SDS011;10358;49.590;11.030;2023-10-08T01:01:16;9.98;;;5.50;;
20397;SDS011;10358;49.590;11.030;2023-10-08T01:03:45;11.95;;;5.38;;
20397;SDS011;10358;49.590;11.030;2023-10-08T01:06:15;8.25;;;4.85;;
20397;SDS011;10358;49.590;11.030;2023-10-08T01:08:45;9.85;;;4.82;;
20397;SDS011;10358;49.590;11.030;2023-10-08T01:11:20;11.20;;;4.55;;
20397;SDS011;10358;49.590;11.030;2023-10-08T01:13:57;11.95;;;4.57;;
20397;SDS011;10358;49.590;11.030;2023-10-08T01:16:24;9.25;;;4.47;;
20397;SDS011;10358;49.590;11.030;2023-10-08T01:18:52;9.68;;;4.10;;
20397;SDS011;10358;49.590;11.030;2023-10-08T01:21:19;8.27;;;4.40;;
20397;SDS011;10358;49.590;11.030;2023-10-08T01:23:59;10.02;;;4.32;;
20397;SDS011;10358;49.590;11.030;2023-10-08T01:26:30;10.38;;;4.65;;
20397;SDS011;10358;49.590;11.030;2023-10-08T01:28:58;12.55;;;5.32;;
20397;SDS011;10358;49.590;11.030;2023-10-08T01:31:32;10.77;;;5.22;;
20397;SDS011;10358;49.590;11.030;2023-10-08T01:33:57;10.32;;;4.70;;
20397;SDS011;10358;49.590;11.030;2023-10-08T01:36:26;10.82;;;5.53;;
20397;SDS011;10358;49.590;11.030;2023-10-08T01:38:53;8.88;;;4.03;;
20397;SDS011;10358;49.590;11.030;2023-10-08T01:41:19;9.52;;;4.75;;
20397;SDS011;10358;49.590;11.030;2023-10-08T01:43:54;10.13;;;4.60;;
20397;SDS011;10358;49.590;11.030;2023-10-08T01:46:20;11.63;;;5.00;;
20397;SDS011;10358;49.590;11.030;2023-10-08T01:48:47;10.10;;;4.53;;
20397;SDS011;10358;49.590;11.030;2023-10-08T01:51:15;10.30;;;4.90;;
20397;SDS011;10358;49.590;11.030;2023-10-08T01:53:54;9.20;;;4.10;;
20397;SDS011;10358;49.590;11.030;2023-10-08T01:56:23;9.38;;;4.35;;
20397;SDS011;10358;49.590;11.030;2023-10-08T01:58:49;9.88;;;4.25;;
20397;SDS011;10358;49.590;11.030;2023-10-08T02:01:19;9.10;;;4.38;;
20397;SDS011;10358;49.590;11.030;2023-10-08T02:03:45;9.07;;;4.40;;
20397;SDS011;10358;49.590;11.030;2023-10-08T02:06:10;15.05;;;4.43;;
20397;SDS011;10358;49.590;11.030;2023-10-08T02:08:37;9.00;;;3.97;;
20397;SDS011;10358;49.590;11.030;2023-10-08T02:11:03;10.90;;;4.10;;
20397;SDS011;10358;49.590;11.030;2023-10-08T02:13:29;6.63;;;3.80;;
20397;SDS011;10358;49.590;11.030;2023-10-08T02:15:55;7.82;;;3.60;;
20397;SDS011;10358;49.590;11.030;2023-10-08T02:18:21;11.50;;;4.18;;
20397;SDS011;10358;49.590;11.030;2023-10-08T02:20:50;18.70;;;10.13;;
20397;SDS011;10358;49.590;11.030;2023-10-08T02:23:16;48.55;;;34.13;;
20397;SDS011;10358;49.590;11.030;2023-10-08T02:25:43;84.60;;;61.78;;
20397;SDS011;10358;49.590;11.030;2023-10-08T02:28:09;93.28;;;65.60;;
20397;SDS011;10358;49.590;11.030;2023-10-08T02:30:40;77.05;;;56.90;;
20397;SDS011;10358;49.590;11.030;2023-10-08T02:33:07;81.45;;;57.45;;
20397;SDS011;10358;49.590;11.030;2023-10-08T02:35:39;136.60;;;96.75;;
20397;SDS011;10358;49.590;11.030;2023-10-08T02:38:07;114.93;;;80.90;;
20397;SDS011;10358;49.590;11.030;2023-10-08T02:40:34;99.45;;;72.72;;
20397;SDS011;10358;49.590;11.030;2023-10-08T02:43:02;67.93;;;49.80;;
20397;SDS011;10358;49.590;11.030;2023-10-08T02:45:31;47.75;;;36.55;;
20397;SDS011;10358;49.590;11.030;2023-10-08T02:47:56;46.03;;;32.73;;
20397;SDS011;10358;49.590;11.030;2023-10-08T02:50:22;45.63;;;30.38;;
20397;SDS011;10358;49.590;11.030;2023-10-08T02:52:49;34.75;;;22.38;;
20397;SDS011;10358;49.590;11.030;2023-10-08T02:55:15;26.52;;;16.02;;
20397;SDS011;10358;49.590;11.030;2023-10-08T02:57:59;23.63;;;14.83;;
20397;SDS011;10358;49.590;11.030;2023-10-08T03:00:28;18.52;;;10.68;;
20397;SDS011;10358;49.590;11.030;2023-10-08T03:03:00;15.32;;;7.45;;
20397;SDS011;10358;49.590;11.030;2023-10-08T03:05:27;11.57;;;6.13;;
20397;SDS011;10358;49.590;11.030;2023-10-08T03:07:56;10.87;;;4.63;;
20397;SDS011;10358;49.590;11.030;2023-10-08T03:10:23;14.02;;;5.00;;
20397;SDS011;10358;49.590;11.030;2023-10-08T03:12:57;10.23;;;4.57;;
20397;SDS011;10358;49.590;11.030;2023-10-08T03:15:29;10.33;;;4.47;;
20397;SDS011;10358;49.590;11.030;2023-10-08T03:17:55;10.77;;;5.00;;
20397;SDS011;10358;49.590;11.030;2023-10-08T03:20:34;13.52;;;6.25;;
20397;SDS011;10358;49.590;11.030;2023-10-08T03:23:06;13.68;;;6.45;;
20397;SDS011;10358;49.590;11.030;2023-10-08T03:25:55;15.05;;;6.45;;
20397;SDS011;10358;49.590;11.030;2023-10-08T03:28:24;12.70;;;6.00;;
20397;SDS011;10358;49.590;11.030;2023-10-08T03:30:51;12.10;;;5.82;;
20397;SDS011;10358;49.590;11.030;2023-10-08T03:33:21;10.02;;;5.15;;
20397;SDS011;10358;49.590;11.030;2023-10-08T03:35:51;8.90;;;5.07;;
20397;SDS011;10358;49.590;11.030;2023-10-08T03:38:18;11.07;;;4.70;;
20397;SDS011;10358;49.590;11.030;2023-10-08T03:40:53;10.13;;;4.00;;
20397;SDS011;10358;49.590;11.030;2023-10-08T03:43:23;7.83;;;3.53;;
20397;SDS011;10358;49.590;11.030;2023-10-08T03:45:59;8.15;;;3.90;;
20397;SDS011;10358;49.590;11.030;2023-10-08T03:48:30;9.02;;;3.30;;
20397;SDS011;10358;49.590;11.030;2023-10-08T03:51:02;7.45;;;3.50;;
20397;SDS011;10358;49.590;11.030;2023-10-08T03:53:32;8.68;;;4.03;;
20397;SDS011;10358;49.590;11.030;2023-10-08T03:56:07;11.32;;;4.18;;
20397;SDS011;10358;49.590;11.030;2023-10-08T03:58:33;10.20;;;4.20;;
20397;SDS011;10358;49.590;11.030;2023-10-08T04:01:05;7.13;;;3.90;;
20397;SDS011;10358;49.590;11.030;2023-10-08T04:03:35;7.85;;;3.75;;
20397;SDS011;10358;49.590;11.030;2023-10-08T04:06:30;8.95;;;4.20;;
20397;SDS011;10358;49.590;11.030;2023-10-08T04:08:59;8.65;;;3.70;;
20397;SDS011;10358;49.590;11.030;2023-10-08T04:11:34;8.70;;;3.83;;
20397;SDS011;10358;49.590;11.030;2023-10-08T04:14:03;8.27;;;3.63;;
20397;SDS011;10358;49.590;11.030;2023-10-08T04:16:29;9.20;;;3.80;;
20397;SDS011;10358;49.590;11.030;2023-10-08T04:18:56;7.55;;;3.42;;
20397;SDS011;10358;49.590;11.030;2023-10-08T04:21:26;11.38;;;3.70;;
20397;SDS011;10358;49.590;11.030;2023-10-08T04:23:54;7.68;;;3.47;;
20397;SDS011;10358;49.590;11.030;2023-10-08T04:26:22;7.70;;;3.47;;
20397;SDS011;10358;49.590;11.030;2023-10-08T04:28:53;11.25;;;4.60;;
20397;SDS011;10358;49.590;11.030;2023-10-08T04:31:22;8.57;;;4.28;;
20397;SDS011;10358;49.590;11.030;2023-10-08T04:33:53;7.75;;;4.53;;
20397;SDS011;10358;49.590;11.030;2023-10-08T04:36:19;9.07;;;4.60;;
20397;SDS011;10358;49.590;11.030;2023-10-08T04:38:45;8.80;;;3.90;;
20397;SDS011;10358;49.590;11.030;2023-10-08T04:41:19;8.15;;;3.42;;
20397;SDS011;10358;49.590;11.030;2023-10-08T04:43:52;9.60;;;3.47;;
20397;SDS011;10358;49.590;11.030;2023-10-08T04:46:20;7.27;;;3.70;;
20397;SDS011;10358;49.590;11.030;2023-10-08T04:49:11;12.98;;;4.03;;
20397;SDS011;10358;49.590;11.030;2023-10-08T04:52:05;8.45;;;3.95;;
20397;SDS011;10358;49.590;11.030;2023-10-08T04:54:39;7.37;;;3.17;;
20397;SDS011;10358;49.590;11.030;2023-10-08T04:57:06;11.00;;;3.78;;
20397;SDS011;10358;49.590;11.030;2023-10-08T04:59:40;6.00;;;3.57;;
20397;SDS011;10358;49.590;11.030;2023-10-08T05:02:06;7.93;;;3.87;;
20397;SDS011;10358;49.590;11.030;2023-10-08T05:04:48;12.52;;;3.60;;
20397;SDS011;10358;49.590;11.030;2023-10-08T05:07:17;8.70;;;3.35;;
20397;SDS011;10358;49.590;11.030;2023-10-08T05:10:05;10.50;;;4.38;;
20397;SDS011;10358;49.590;11.030;2023-10-08T05:12:31;14.00;;;4.43;;
20397;SDS011;10358;49.590;11.030;2023-10-08T05:15:03;14.10;;;4.60;;
20397;SDS011;10358;49.590;11.030;2023-10-08T05:17:45;9.27;;;4.03;;
20397;SDS011;10358;49.590;11.030;2023-10-08T05:20:31;9.75;;;4.43;;
20397;SDS011;10358;49.590;11.030;2023-10-08T05:23:24;11.98;;;4.95;;
20397;SDS011;10358;49.590;11.030;2023-10-08T05:25:53;11.95;;;4.18;;
20397;SDS011;10358;49.590;11.030;2023-10-08T05:28:34;8.65;;;3.78;;
20397;SDS011;10358;49.590;11.030;2023-10-08T05:31:23;6.20;;;2.87;;
20397;SDS011;10358;49.590;11.030;2023-10-08T05:34:06;11.53;;;3.57;;
20397;SDS011;10358;49.590;11.030;2023-10-08T05:36:46;9.53;;;3.70;;
20397;SDS011;10358;49.590;11.030;2023-10-08T05:39:30;8.18;;;3.40;;
20397;SDS011;10358;49.590;11.030;2023-10-08T05:42:08;10.18;;;3.58;;
20397;SDS011;10358;49.590;11.030;2023-10-08T05:44:56;7.20;;;3.30;;
20397;SDS011;10358;49.590;11.030;2023-10-08T05:47:45;10.75;;;3.60;;
20397;SDS011;10358;49.590;11.030;2023-10-08T05:50:31;10.57;;;3.58;;
20397;SDS011;10358;49.590;11.030;2023-10-08T05:53:19;8.77;;;3.60;;
20397;SDS011;10358;49.590;11.030;2023-10-08T05:56:05;9.67;;;3.70;;
20397;SDS011;10358;49.590;11.030;2023-10-08T05:58:41;10.80;;;4.00;;
20397;SDS011;10358;49.590;11.030;2023-10-08T06:01:33;6.80;;;3.63;;
20397;SDS011;10358;49.590;11.030;2023-10-08T06:04:06;7.22;;;3.53;;
20397;SDS011;10358;49.590;11.030;2023-10-08T06:07:06;5.93;;;3.22;;
20397;SDS011;10358;49.590;11.030;2023-10-08T06:09:45;6.73;;;3.70;;
20397;SDS011;10358;49.590;11.030;2023-10-08T06:12:27;14.05;;;3.67;;
20397;SDS011;10358;49.590;11.030;2023-10-08T06:14:58;9.75;;;3.40;;
20397;SDS011;10358;49.590;11.030;2023-10-08T06:17:33;8.65;;;3.53;;
20397;SDS011;10358;49.590;11.030;2023-10-08T06:20:09;8.77;;;3.80;;
20397;SDS011;10358;49.590;11.030;2023-10-08T06:22:41;8.82;;;3.75;;
20397;SDS011;10358;49.590;11.030;2023-10-08T06:25:07;7.68;;;3.72;;
20397;SDS011;10358;49.590;11.030;2023-10-08T06:27:47;7.45;;;3.58;;
20397;SDS011;10358;49.590;11.030;2023-10-08T06:30:15;7.15;;;3.45;;
20397;SDS011;10358;49.590;11.030;2023-10-08T06:32:44;9.77;;;3.50;;
20397;SDS011;10358;49.590;11.030;2023-10-08T06:35:10;9.75;;;3.70;;
20397;SDS011;10358;49.590;11.030;2023-10-08T06:37:43;9.18;;;3.67;;
20397;SDS011;10358;49.590;11.030;2023-10-08T06:40:19;8.05;;;3.80;;
20397;SDS011;10358;49.590;11.030;2023-10-08T06:43:08;9.18;;;4.13;;
20397;SDS011;10358;49.590;11.030;2023-10-08T06:45:39;10.02;;;3.75;;
20397;SDS011;10358;49.590;11.030;2023-10-08T06:48:09;12.70;;;3.88;;
20397;SDS011;10358;49.590;11.030;2023-10-08T06:50:42;10.23;;;3.65;;
20397;SDS011;10358;49.590;11.030;2023-10-08T06:53:12;10.30;;;4.25;;
20397;SDS011;10358;49.590;11.030;2023-10-08T06:55:43;10.00;;;4.05;;
20397;SDS011;10358;49.590;11.030;2023-10-08T06:58:13;6.88;;;3.50;;
20397;SDS011;10358;49.590;11.030;2023-10-08T07:00:40;9.57;;;3.75;;
20397;SDS011;10358;49.590;11.030;2023-10-08T07:03:12;9.52;;;4.15;;
20397;SDS011;10358;49.590;11.030;2023-10-08T07:05:45;8.70;;;3.75;;
20397;SDS011;10358;49.590;11.030;2023-10-08T07:08:26;9.43;;;3.90;;
20397;SDS011;10358;49.590;11.030;2023-10-08T07:10:54;10.15;;;3.90;;
20397;SDS011;10358;49.590;11.030;2023-10-08T07:13:21;9.35;;;3.63;;
20397;SDS011;10358;49.590;11.030;2023-10-08T07:15:51;12.45;;;4.22;;
20397;SDS011;10358;49.590;11.030;2023-10-08T07:18:17;12.13;;;4.10;;
20397;SDS011;10358;49.590;11.030;2023-10-08T07:20:53;11.70;;;3.90;;
20397;SDS011;10358;49.590;11.030;2023-10-08T07:23:22;12.60;;;3.88;;
20397;SDS011;10358;49.590;11.030;2023-10-08T07:25:56;11.93;;;4.25;;
20397;SDS011;10358;49.590;11.030;2023-10-08T07:28:43;7.15;;;3.45;;
20397;SDS011;10358;49.590;11.030;2023-10-08T07:31:16;10.85;;;3.53;;
20397;SDS011;10358;49.590;11.030;2023-10-08T07:33:46;13.35;;;3.95;;
20397;SDS011;10358;49.590;11.030;2023-10-08T07:36:20;11.82;;;3.75;;
20397;SDS011;10358;49.590;11.030;2023-10-08T07:38:46;8.65;;;3.65;;
20397;SDS011;10358;49.590;11.030;2023-10-08T07:41:12;8.10;;;3.80;;
20397;SDS011;10358;49.590;11.030;2023-10-08T07:43:43;9.48;;;4.07;;
20397;SDS011;10358;49.590;11.030;2023-10-08T07:46:11;8.35;;;3.33;;
20397;SDS011;10358;49.590;11.030;2023-10-08T07:48:39;10.32;;;3.95;;
20397;SDS011;10358;49.590;11.030;2023-10-08T07:51:07;10.35;;;3.75;;
20397;SDS011;10358;49.590;11.030;2023-10-08T07:53:33;12.15;;;3.80;;
20397;SDS011;10358;49.590;11.030;2023-10-08T07:56:06;8.73;;;3.85;;
20397;SDS011;10358;49.590;11.030;2023-10-08T07:58:33;7.80;;;3.83;;
20397;SDS011;10358;49.590;11.030;2023-10-08T08:01:06;12.20;;;4.00;;
20397;SDS011;10358;49.590;11.030;2023-10-08T08:03:34;8.43;;;3.55;;
20397;SDS011;10358;49.590;11.030;2023-10-08T08:06:01;10.85;;;3.58;;
20397;SDS011;10358;49.590;11.030;2023-10-08T08:08:31;10.15;;;3.72;;
20397;SDS011;10358;49.590;11.030;2023-10-08T08:11:01;8.50;;;3.80;;
20397;SDS011;10358;49.590;11.030;2023-10-08T08:13:37;9.88;;;3.88;;
20397;SDS011;10358;49.590;11.030;2023-10-08T08:16:05;11.50;;;4.03;;
20397;SDS011;10358;49.590;11.030;2023-10-08T08:18:47;10.80;;;3.80;;
20397;SDS011;10358;49.590;11.030;2023-10-08T08:21:17;13.57;;;4.25;;
20397;SDS011;10358;49.590;11.030;2023-10-08T08:23:45;12.35;;;4.15;;
20397;SDS011;10358;49.590;11.030;2023-10-08T08:26:23;9.85;;;4.10;;
20397;SDS011;10358;49.590;11.030;2023-10-08T08:28:54;9.93;;;3.58;;
20397;SDS011;10358;49.590;11.030;2023-10-08T08:31:29;9.73;;;4.40;;
20397;SDS011;10358;49.590;11.030;2023-10-08T08:34:00;9.63;;;4.20;;
20397;SDS011;10358;49.590;11.030;2023-10-08T08:36:39;9.48;;;3.75;;
20397;SDS011;10358;49.590;11.030;2023-10-08T08:39:10;11.15;;;4.00;;
20397;SDS011;10358;49.590;11.030;2023-10-08T08:41:37;11.88;;;4.15;;
20397;SDS011;10358;49.590;11.030;2023-10-08T08:44:03;8.00;;;3.92;;
20397;SDS011;10358;49.590;11.030;2023-10-08T08:46:32;12.20;;;4.05;;
20397;SDS011;10358;49.590;11.030;2023-10-08T08:49:03;13.90;;;3.80;;
20397;SDS011;10358;49.590;11.030;2023-10-08T08:51:32;12.27;;;4.10;;
20397;SDS011;10358;49.590;11.030;2023-10-08T08:54:00;11.23;;;3.75;;
20397;SDS011;10358;49.590;11.030;2023-10-08T08:56:31;6.82;;;3.72;;
20397;SDS011;10358;49.590;11.030;2023-10-08T08:59:06;14.70;;;4.10;;
20397;SDS011;10358;49.590;11.030;2023-10-08T09:01:36;9.10;;;3.97;;
20397;SDS011;10358;49.590;11.030;2023-10-08T09:04:04;10.00;;;3.92;;
20397;SDS011;10358;49.590;11.030;2023-10-08T09:06:31;10.50;;;4.03;;
20397;SDS011;10358;49.590;11.030;2023-10-08T09:09:04;13.07;;;3.88;;
20397;SDS011;10358;49.590;11.030;2023-10-08T09:11:59;15.02;;;3.35;;
20397;SDS011;10358;49.590;11.030;2023-10-08T09:14:25;11.00;;;4.03;;
20397;SDS011;10358;49.590;11.030;2023-10-08T09:16:55;13.27;;;4.25;;
20397;SDS011;10358;49.590;11.030;2023-10-08T09:19:22;10.38;;;4.40;;
20397;SDS011;10358;49.590;11.030;2023-10-08T09:24:32;8.88;;;3.70;;
20397;SDS011;10358;49.590;11.030;2023-10-08T09:27:01;14.15;;;4.03;;
20397;SDS011;10358;49.590;11.030;2023-10-08T09:29:28;9.25;;;4.20;;
20397;SDS011;10358;49.590;11.030;2023-10-08T09:31:57;10.38;;;4.13;;
20397;SDS011;10358;49.590;11.030;2023-10-08T09:34:27;11.88;;;4.18;;
20397;SDS011;10358;49.590;11.030;2023-10-08T09:36:55;14.50;;;4.57;;
20397;SDS011;10358;49.590;11.030;2023-10-08T09:39:22;9.93;;;4.03;;
20397;SDS011;10358;49.590;11.030;2023-10-08T09:41:55;9.35;;;4.32;;
20397;SDS011;10358;49.590;11.030;2023-10-08T09:44:23;9.95;;;4.10;;
20397;SDS011;10358;49.590;11.030;2023-10-08T09:47:07;11.65;;;4.47;;
20397;SDS011;10358;49.590;11.030;2023-10-08T09:49:48;11.05;;;4.05;;
20397;SDS011;10358;49.590;11.030;2023-10-08T09:52:24;9.48;;;4.20;;
20397;SDS011;10358;49.590;11.030;2023-10-08T09:55:02;14.35;;;4.30;;
20397;SDS011;10358;49.590;11.030;2023-10-08T09:57:37;10.10;;;3.88;;
20397;SDS011;10358;49.590;11.030;2023-10-08T10:00:07;9.20;;;4.03;;
20397;SDS011;10358;49.590;11.030;2023-10-08T10:02:57;14.90;;;4.57;;
20397;SDS011;10358;49.590;11.030;2023-10-08T10:05:28;11.38;;;4.28;;
20397;SDS011;10358;49.590;11.030;2023-10-08T10:07:55;12.93;;;4.38;;
20397;SDS011;10358;49.590;11.030;2023-10-08T10:10:25;10.77;;;4.13;;
20397;SDS011;10358;49.590;11.030;2023-10-08T10:12:52;7.60;;;4.22;;
20397;SDS011;10358;49.590;11.030;2023-10-08T10:15:20;10.73;;;4.80;;
20397;SDS011;10358;49.590;11.030;2023-10-08T10:17:49;10.82;;;3.92;;
20397;SDS011;10358;49.590;11.030;2023-10-08T10:20:14;11.40;;;4.28;;
20397;SDS011;10358;49.590;11.030;2023-10-08T10:22:41;13.15;;;4.05;;
20397;SDS011;10358;49.590;11.030;2023-10-08T10:25:09;9.73;;;4.38;;
20397;SDS011;10358;49.590;11.030;2023-10-08T10:28:27;13.00;;;4.40;;
20397;SDS011;10358;49.590;11.030;2023-10-08T10:30:33;7.82;;;3.90;;
20397;SDS011;10358;49.590;11.030;2023-10-08T10:33:02;12.90;;;5.00;;
20397;SDS011;10358;49.590;11.030;2023-10-08T10:35:30;14.18;;;4.70;;
20397;SDS011;10358;49.590;11.030;2023-10-08T10:37:57;13.35;;;4.43;;
20397;SDS011;10358;49.590;11.030;2023-10-08T10:40:28;10.02;;;4.35;;
20397;SDS011;10358;49.590;11.030;2023-10-08T10:42:56;14.13;;;4.30;;
20397;SDS011;10358;49.590;11.030;2023-10-08T10:45:28;11.38;;;4.53;;
20397;SDS011;10358;49.590;11.030;2023-10-08T10:48:08;13.90;;;4.40;;
20397;SDS011;10358;49.590;11.030;2023-10-08T10:50:40;7.38;;;3.92;;
20397;SDS011;10358;49.590;11.030;2023-10-08T10:53:14;15.32;;;4.53;;
20397;SDS011;10358;49.590;11.030;2023-10-08T10:55:43;13.20;;;4.32;;
20397;SDS011;10358;49.590;11.030;2023-10-08T10:58:25;16.13;;;5.38;;
20397;SDS011;10358;49.590;11.030;2023-10-08T11:00:53;13.13;;;5.00;;
20397;SDS011;10358;49.590;11.030;2023-10-08T11:03:24;12.65;;;4.90;;
20397;SDS011;10358;49.590;11.030;2023-10-08T11:05:51;12.07;;;4.55;;
20397;SDS011;10358;49.590;11.030;2023-10-08T11:08:24;14.95;;;4.70;;
20397;SDS011;10358;49.590;11.030;2023-10-08T11:10:51;11.82;;;4.60;;
20397;SDS011;10358;49.590;11.030;2023-10-08T11:13:18;11.32;;;4.50;;
20397;SDS011;10358;49.590;11.030;2023-10-08T11:15:45;13.73;;;4.82;;
20397;SDS011;10358;49.590;11.030;2023-10-08T11:18:18;11.70;;;4.65;;
20397;SDS011;10358;49.590;11.030;2023-10-08T11:20:46;12.35;;;5.35;;
20397;SDS011;10358;49.590;11.030;2023-10-08T11:23:37;9.95;;;4.50;;
20397;SDS011;10358;49.590;11.030;2023-10-08T11:26:07;13.98;;;4.45;;
20397;SDS011;10358;49.590;11.030;2023-10-08T11:28:36;11.52;;;4.25;;
20397;SDS011;10358;49.590;11.030;2023-10-08T11:31:07;12.55;;;4.28;;
20397;SDS011;10358;49.590;11.030;2023-10-08T11:33:42;9.85;;;4.57;;
20397;SDS011;10358;49.590;11.030;2023-10-08T11:36:21;11.18;;;4.35;;
20397;SDS011;10358;49.590;11.030;2023-10-08T11:38:53;8.02;;;4.22;;
20397;SDS011;10358;49.590;11.030;2023-10-08T11:41:25;16.15;;;4.85;;
20397;SDS011;10358;49.590;11.030;2023-10-08T11:43:54;11.23;;;4.35;;
20397;SDS011;10358;49.590;11.030;2023-10-08T11:46:23;9.65;;;4.05;;
20397;SDS011;10358;49.590;11.030;2023-10-08T11:49:04;12.18;;;4.13;;
20397;SDS011;10358;49.590;11.030;2023-10-08T11:51:33;12.13;;;4.38;;
20397;SDS011;10358;49.590;11.030;2023-10-08T11:54:03;11.20;;;4.25;;
20397;SDS011;10358;49.590;11.030;2023-10-08T11:56:32;8.20;;;4.30;;
20397;SDS011;10358;49.590;11.030;2023-10-08T11:59:01;9.93;;;4.32;;
20397;SDS011;10358;49.590;11.030;2023-10-08T12:01:30;11.73;;;4.22;;
20397;SDS011;10358;49.590;11.030;2023-10-08T12:04:00;10.00;;;4.25;;
20397;SDS011;10358;49.590;11.030;2023-10-08T12:06:26;14.27;;;4.07;;
20397;SDS011;10358;49.590;11.030;2023-10-08T12:08:55;10.93;;;4.50;;
20397;SDS011;10358;49.590;11.030;2023-10-08T12:11:24;12.68;;;4.65;;
20397;SDS011;10358;49.590;11.030;2023-10-08T12:13:56;13.80;;;4.35;;
20397;SDS011;10358;49.590;11.030;2023-10-08T12:16:23;13.88;;;4.63;;
20397;SDS011;10358;49.590;11.030;2023-10-08T12:18:51;13.93;;;4.70;;
20397;SDS011;10358;49.590;11.030;2023-10-08T12:21:24;13.63;;;4.72;;
20397;SDS011;10358;49.590;11.030;2023-10-08T12:23:50;7.25;;;3.72;;
20397;SDS011;10358;49.590;11.030;2023-10-08T12:26:16;10.85;;;4.50;;
20397;SDS011;10358;49.590;11.030;2023-10-08T12:28:46;12.20;;;4.28;;
20397;SDS011;10358;49.590;11.030;2023-10-08T12:31:13;11.80;;;4.63;;
20397;SDS011;10358;49.590;11.030;2023-10-08T12:33:47;13.57;;;4.13;;
20397;SDS011;10358;49.590;11.030;2023-10-08T12:36:14;10.20;;;4.50;;
20397;SDS011;10358;49.590;11.030;2023-10-08T12:38:42;10.18;;;4.20;;
20397;SDS011;10358;49.590;11.030;2023-10-08T12:41:11;12.25;;;4.90;;
20397;SDS011;10358;49.590;11.030;2023-10-08T12:43:38;15.57;;;4.75;;
20397;SDS011;10358;49.590;11.030;2023-10-08T12:46:04;8.57;;;4.40;;
20397;SDS011;10358;49.590;11.030;2023-10-08T12:48:36;11.02;;;4.50;;
20397;SDS011;10358;49.590;11.030;2023-10-08T12:51:02;10.48;;;4.60;;
20397;SDS011;10358;49.590;11.030;2023-10-08T12:53:31;15.20;;;4.70;;
20397;SDS011;10358;49.590;11.030;2023-10-08T12:56:05;14.73;;;4.38;;
20397;SDS011;10358;49.590;11.030;2023-10-08T12:58:32;12.25;;;4.63;;
20397;SDS011;10358;49.590;11.030;2023-10-08T13:01:09;12.15;;;4.93;;
20397;SDS011;10358;49.590;11.030;2023-10-08T13:03:38;14.68;;;4.50;;
20397;SDS011;10358;49.590;11.030;2023-10-08T13:06:08;12.68;;;5.32;;
20397;SDS011;10358;49.590;11.030;2023-10-08T13:08:40;14.90;;;4.82;;
20397;SDS011;10358;49.590;11.030;2023-10-08T13:11:06;9.52;;;4.40;;
20397;SDS011;10358;49.590;11.030;2023-10-08T13:13:32;18.17;;;4.82;;
20397;SDS011;10358;49.590;11.030;2023-10-08T13:15:58;14.00;;;4.72;;
20397;SDS011;10358;49.590;11.030;2023-10-08T13:18:28;16.80;;;4.90;;
20397;SDS011;10358;49.590;11.030;2023-10-08T13:20:54;14.40;;;5.15;;
20397;SDS011;10358;49.590;11.030;2023-10-08T13:23:20;9.98;;;4.78;;
20397;SDS011;10358;49.590;11.030;2023-10-08T13:25:48;11.45;;;5.68;;
20397;SDS011;10358;49.590;11.030;2023-10-08T13:28:23;14.80;;;5.10;;
20397;SDS011;10358;49.590;11.030;2023-10-08T13:30:51;13.73;;;5.13;;
20397;SDS011;10358;49.590;11.030;2023-10-08T13:33:21;13.95;;;5.20;;
20397;SDS011;10358;49.590;11.030;2023-10-08T13:35:50;16.27;;;5.32;;
20397;SDS011;10358;49.590;11.030;2023-10-08T13:38:16;13.68;;;4.85;;
20397;SDS011;10358;49.590;11.030;2023-10-08T13:40:46;14.98;;;5.82;;
20397;SDS011;10358;49.590;11.030;2023-10-08T13:43:27;11.55;;;4.93;;
20397;SDS011;10358;49.590;11.030;2023-10-08T13:45:59;9.20;;;4.32;;
20397;SDS011;10358;49.590;11.030;2023-10-08T13:48:38;12.45;;;4.78;;
20397;SDS011;10358;49.590;11.030;2023-10-08T13:51:05;9.43;;;4.40;;
20397;SDS011;10358;49.590;11.030;2023-10-08T13:53:38;9.93;;;4.25;;
20397;SDS011;10358;49.590;11.030;2023-10-08T13:56:10;8.63;;;3.75;;
20397;SDS011;10358;49.590;11.030;2023-10-08T13:58:36;12.75;;;3.58;;
20397;SDS011;10358;49.590;11.030;2023-10-08T14:01:06;8.98;;;3.67;;
20397;SDS011;10358;49.590;11.030;2023-10-08T14:03:47;6.50;;;3.40;;
20397;SDS011;10358;49.590;11.030;2023-10-08T14:06:17;7.40;;;3.15;;
20397;SDS011;10358;49.590;11.030;2023-10-08T14:08:43;6.85;;;3.50;;
20397;SDS011;10358;49.590;11.030;2023-10-08T14:11:16;10.43;;;3.40;;
20397;SDS011;10358;49.590;11.030;2023-10-08T14:13:48;9.63;;;3.25;;
20397;SDS011;10358;49.590;11.030;2023-10-08T14:16:17;10.57;;;3.63;;
20397;SDS011;10358;49.590;11.030;2023-10-08T14:18:43;7.18;;;3.25;;
20397;SDS011;10358;49.590;11.030;2023-10-08T14:21:15;5.72;;;3.10;;
20397;SDS011;10358;49.590;11.030;2023-10-08T14:23:43;6.22;;;3.10;;
20397;SDS011;10358;49.590;11.030;2023-10-08T14:26:09;6.00;;;3.05;;
20397;SDS011;10358;49.590;11.030;2023-10-08T14:28:35;5.38;;;2.45;;
20397;SDS011;10358;49.590;11.030;2023-10-08T14:31:16;7.00;;;2.45;;
20397;SDS011;10358;49.590;11.030;2023-10-08T14:33:45;7.43;;;2.78;;
20397;SDS011;10358;49.590;11.030;2023-10-08T14:36:29;4.45;;;2.42;;
20397;SDS011;10358;49.590;11.030;2023-10-08T14:39:13;5.70;;;2.55;;
20397;SDS011;10358;49.590;11.030;2023-10-08T14:41:57;6.65;;;2.65;;
20397;SDS011;10358;49.590;11.030;2023-10-08T14:44:42;7.32;;;2.70;;
20397;SDS011;10358;49.590;11.030;2023-10-08T14:47:07;5.78;;;2.70;;
20397;SDS011;10358;49.590;11.030;2023-10-08T14:49:33;6.75;;;2.42;;
20397;SDS011;10358;49.590;11.030;2023-10-08T14:52:00;5.85;;;2.17;;
20397;SDS011;10358;49.590;11.030;2023-10-08T14:54:30;8.57;;;2.55;;